Time;durP1;ratioP1;P1;durP2;ratioP2;P2;SDS_P1;SDS_P2;PMS_P1;PMS_P2;Temp;Humidity;BMP_temperature;BMP_pressure;BME280_temperature;BME280_humidity;BME280_pressure;Samples;Min_cycle;Max_cycle;Signal;HPM_P1;HPM_P2
2022/09/25 00:00:25;;;;;;;16.38;5.18;;;;;;;9.92;100.00;101458.50;5133823;28;20427;-44
2022/09/25 00:02:50;;;;;;;16.83;5.18;;;;;;;9.88;100.00;101458.34;5133081;28;20059;-44
2022/09/25 00:05:15;;;;;;;14.00;4.85;;;;;;;9.86;100.00;101465.16;5133478;28;20034;-45
2022/09/25 00:07:41;;;;;;;16.67;4.82;;;;;;;9.85;100.00;101459.91;5133806;28;20032;-44
2022/09/25 00:10:07;;;;;;;15.90;5.32;;;;;;;9.83;100.00;101469.28;5133385;28;20031;-43
2022/09/25 00:12:32;;;;;;;16.63;4.82;;;;;;;9.80;100.00;101466.56;5133189;28;20031;-44
2022/09/25 00:14:57;;;;;;;19.13;5.47;;;;;;;9.80;100.00;101470.03;5133786;28;20057;-46
2022/09/25 00:17:22;;;;;;;17.10;4.65;;;;;;;9.78;100.00;101466.50;5133220;28;20523;-46
2022/09/25 00:19:50;;;;;;;17.83;5.35;;;;;;;9.76;100.00;101475.88;5133105;28;20019;-46
2022/09/25 00:22:17;;;;;;;16.80;4.97;;;;;;;9.74;100.00;101477.47;5133675;28;20454;-44
2022/09/25 00:24:43;;;;;;;14.38;5.03;;;;;;;9.73;100.00;101470.56;5135636;27;20019;-44
2022/09/25 00:27:08;;;;;;;15.07;4.80;;;;;;;9.68;100.00;101466.91;5137593;27;20015;-44
2022/09/25 00:29:36;;;;;;;16.83;5.30;;;;;;;9.63;100.00;101469.31;5137471;27;20033;-42
2022/09/25 00:32:03;;;;;;;15.88;5.05;;;;;;;9.62;100.00;101471.78;5136980;27;20030;-44
2022/09/25 00:34:29;;;;;;;16.95;5.30;;;;;;;9.59;100.00;101472.53;5137250;27;20133;-43
2022/09/25 00:36:54;;;;;;;16.83;5.55;;;;;;;9.59;100.00;101469.97;5137456;27;20063;-46
2022/09/25 00:39:19;;;;;;;13.35;5.22;;;;;;;9.64;100.00;101460.75;5136998;27;20015;-45
2022/09/25 00:41:45;;;;;;;17.98;5.85;;;;;;;9.58;100.00;101464.75;5136790;27;20035;-44
2022/09/25 00:44:47;;;;;;;17.63;5.55;;;;;;;9.60;100.00;101470.88;5137430;27;20050;-43
2022/09/25 00:47:22;;;;;;;13.43;5.05;;;;;;;9.56;100.00;101470.72;5137306;27;20106;-42
2022/09/25 00:49:49;;;;;;;18.38;6.18;;;;;;;9.53;100.00;101472.28;5137258;27;20027;-43
2022/09/25 00:52:15;;;;;;;12.30;5.30;;;;;;;9.52;100.00;101475.66;5136844;27;20019;-42
2022/09/25 00:54:51;;;;;;;16.48;5.63;;;;;;;9.48;100.00;101477.22;5136788;27;20047;-44
2022/09/25 00:57:19;;;;;;;18.65;5.05;;;;;;;9.44;100.00;101472.75;5137116;27;20023;-44
2022/09/25 00:59:49;;;;;;;14.93;5.65;;;;;;;9.42;100.00;101483.78;5136808;27;20023;-46
2022/09/25 01:02:27;;;;;;;19.20;5.82;;;;;;;9.41;100.00;101474.31;5136659;27;20459;-43
2022/09/25 01:04:59;;;;;;;16.48;6.13;;;;;;;9.40;100.00;101476.03;5136664;27;20019;-43
2022/09/25 01:07:24;;;;;;;18.77;6.25;;;;;;;9.38;100.00;101475.06;5136559;27;20023;-44
2022/09/25 01:09:50;;;;;;;19.05;6.32;;;;;;;9.39;100.00;101474.25;5136386;27;20137;-42
2022/09/25 01:12:15;;;;;;;17.15;6.65;;;;;;;9.34;100.00;101473.16;5137074;27;20111;-46
2022/09/25 01:14:41;;;;;;;21.15;6.72;;;;;;;9.30;100.00;101481.56;5136159;27;20361;-44
2022/09/25 01:17:10;;;;;;;18.52;6.47;;;;;;;9.23;100.00;101477.81;5136674;27;20138;-43
2022/09/25 01:19:53;;;;;;;16.73;7.18;;;;;;;9.21;100.00;101480.31;5135941;27;20102;-46
2022/09/25 01:22:55;;;;;;;18.90;6.90;;;;;;;9.21;100.00;101482.88;5136280;27;20390;-46
2022/09/25 01:25:38;;;;;;;17.77;6.18;;;;;;;9.15;100.00;101485.19;5136574;27;20113;-46
2022/09/25 01:28:51;;;;;;;18.52;6.85;;;;;;;9.16;100.00;101486.94;5136036;27;20473;-46
2022/09/25 01:31:25;;;;;;;21.08;7.18;;;;;;;9.00;100.00;101485.38;5127062;27;20065;-43
2022/09/25 01:33:57;;;;;;;19.90;6.97;;;;;;;8.97;100.00;101479.19;5135765;27;20115;-47
2022/09/25 01:36:40;;;;;;;16.88;6.75;;;;;;;8.94;100.00;101484.22;5135559;27;20102;-45
2022/09/25 01:39:13;;;;;;;18.85;6.78;;;;;;;8.88;100.00;101485.69;5136576;27;20114;-42
2022/09/25 01:41:46;;;;;;;22.15;6.50;;;;;;;8.82;100.00;101495.69;5135441;27;20043;-45
2022/09/25 01:44:23;;;;;;;17.75;6.78;;;;;;;8.80;100.00;101497.28;5136115;27;20019;-43
2022/09/25 01:46:50;;;;;;;;;;;;;;;8.88;100.00;101484.78;5136440;27;20039;-42
2022/09/25 01:49:28;;;;;;;23.40;6.72;;;;;;;8.77;100.00;101492.00;5135527;27;20411;-43
2022/09/25 01:51:56;;;;;;;16.83;6.45;;;;;;;8.71;100.00;101494.28;5135836;27;20031;-46
2022/09/25 01:54:35;;;;;;;14.75;6.25;;;;;;;8.61;100.00;101494.66;5136083;27;20015;-42
2022/09/25 01:57:12;;;;;;;18.33;6.97;;;;;;;8.52;100.00;101495.97;5135529;27;20035;-45
2022/09/25 01:59:47;;;;;;;16.38;6.43;;;;;;;8.47;100.00;101502.59;5135600;27;20103;-43
2022/09/25 02:02:18;;;;;;;14.30;6.13;;;;;;;8.39;100.00;101499.59;5135528;27;20102;-44
2022/09/25 02:04:54;;;;;;;15.63;6.43;;;;;;;8.33;100.00;101495.88;5135341;27;20029;-44
2022/09/25 02:07:26;;;;;;;19.65;6.85;;;;;;;8.33;100.00;101495.88;5135931;27;20055;-42
2022/09/25 02:09:56;;;;;;;15.93;6.90;;;;;;;8.28;100.00;101494.75;5134933;27;20051;-46
2022/09/25 02:12:34;;;;;;;15.50;6.80;;;;;;;8.21;100.00;101494.44;5135362;27;20029;-45
2022/09/25 02:15:06;;;;;;;18.15;6.78;;;;;;;8.15;100.00;101494.13;5135813;27;20037;-44
2022/09/25 02:20:33;;;;;;;15.05;7.03;;;;;;;8.06;100.00;101484.28;5135677;27;20112;-45
2022/09/25 02:23:16;;;;;;;15.00;7.10;;;;;;;8.03;100.00;101483.22;5135092;27;20023;-44
2022/09/25 02:26:00;;;;;;;14.02;6.85;;;;;;;8.03;100.00;101484.13;5134972;27;20034;-45
2022/09/25 02:28:25;;;;;;;18.98;6.45;;;;;;;7.93;100.00;101486.13;5135559;27;20034;-45
2022/09/25 02:30:53;;;;;;;16.20;6.20;;;;;;;7.82;100.00;101489.03;5134497;27;20019;-48
2022/09/25 02:33:18;;;;;;;;;;;;;;;7.96;100.00;101488.88;5135453;27;20066;-43
2022/09/25 02:35:43;;;;;;;14.07;6.27;;;;;;;7.75;100.00;101487.84;5135207;27;19956;-45
2022/09/25 02:38:09;;;;;;;20.95;6.50;;;;;;;7.67;100.00;101488.25;5134626;27;20299;-46
2022/09/25 02:40:46;;;;;;;17.05;6.45;;;;;;;7.64;100.00;101493.25;5134659;27;20486;-46
2022/09/25 02:43:37;;;;;;;18.55;6.50;;;;;;;7.62;100.00;101495.72;5135071;27;20033;-46
2022/09/25 02:46:11;;;;;;;16.83;6.80;;;;;;;7.61;100.00;101490.53;5134580;27;20027;-46
2022/09/25 02:48:48;;;;;;;23.80;7.15;;;;;;;7.60;100.00;101506.72;5133659;27;20027;-44
2022/09/25 02:51:35;;;;;;;25.58;8.02;;;;;;;7.58;100.00;101491.25;5134483;27;20035;-46
2022/09/25 02:54:05;;;;;;;21.67;7.75;;;;;;;7.54;100.00;101482.50;5134644;27;20031;-45
2022/09/25 02:56:40;;;;;;;18.63;7.68;;;;;;;7.60;100.00;101481.06;5134600;27;20038;-44
2022/09/25 02:59:14;;;;;;;16.98;7.53;;;;;;;7.53;100.00;101470.47;5134390;27;20023;-45
2022/09/25 03:01:41;;;;;;;21.52;7.40;;;;;;;7.54;100.00;101469.69;5134265;27;20019;-44
2022/09/25 03:04:08;;;;;;;21.65;8.18;;;;;;;7.56;100.00;101475.75;5134784;27;20034;-46
2022/09/25 03:06:36;;;;;;;19.10;7.82;;;;;;;7.54;100.00;101477.38;5133718;27;20547;-45
2022/09/25 03:09:04;;;;;;;16.95;6.90;;;;;;;7.35;100.00;101479.78;5134585;27;20035;-46
2022/09/25 03:11:29;;;;;;;18.15;6.82;;;;;;;7.27;100.00;101475.91;5134643;27;20106;-47
2022/09/25 03:13:57;;;;;;;19.23;7.72;;;;;;;7.31;100.00;101478.72;5133871;27;20110;-49
2022/09/25 03:16:33;;;;;;;;;;;;;;;7.39;100.00;101474.00;5134661;27;20110;-45
2022/09/25 03:18:59;;;;;;;19.25;7.68;;;;;;;7.25;100.00;101475.84;5134350;27;19911;-47
2022/09/25 03:21:24;;;;;;;18.05;7.25;;;;;;;7.19;100.00;101472.94;5133797;27;20102;-44
2022/09/25 03:23:49;;;;;;;18.70;8.02;;;;;;;7.15;100.00;101484.72;5133879;27;20430;-47
2022/09/25 03:26:14;;;;;;;19.55;7.05;;;;;;;7.06;100.00;101477.44;5133790;27;20026;-45
2022/09/25 03:28:40;;;;;;;20.55;8.02;;;;;;;7.10;100.00;101478.44;5133854;27;20021;-46
2022/09/25 03:31:09;;;;;;;22.17;9.00;;;;;;;7.16;100.00;101488.16;5134107;27;20359;-47
2022/09/25 03:33:39;;;;;;;18.05;8.45;;;;;;;7.08;100.00;101487.75;5133276;27;20030;-44
2022/09/25 03:36:17;;;;;;;19.38;9.00;;;;;;;7.05;100.00;101482.44;5133907;27;20455;-47
2022/09/25 03:38:44;;;;;;;21.45;9.73;;;;;;;7.18;100.00;101484.88;5134055;27;20116;-46
2022/09/25 03:41:11;;;;;;;30.20;10.77;;;;;;;7.15;100.00;101476.16;5133435;27;20047;-46
2022/09/25 03:43:39;;;;;;;21.45;11.23;;;;;;;7.15;100.00;101479.56;5133588;27;20401;-46
2022/09/25 03:46:07;;;;;;;21.23;10.68;;;;;;;7.07;100.00;101480.84;5133921;27;20065;-45
2022/09/25 03:48:32;;;;;;;20.55;9.95;;;;;;;7.00;100.00;101477.09;5132874;27;20035;-46
2022/09/25 03:50:58;;;;;;;19.40;9.70;;;;;;;7.01;100.00;101471.16;5133889;27;20072;-45
2022/09/25 03:53:26;;;;;;;24.30;11.45;;;;;;;7.07;100.00;101476.59;5133874;27;20023;-44
2022/09/25 03:55:52;;;;;;;20.73;10.18;;;;;;;7.00;100.00;101481.34;5133047;28;20480;-45
2022/09/25 03:58:19;;;;;;;22.42;9.90;;;;;;;6.96;100.00;101479.38;5133184;27;20106;-46
2022/09/25 04:00:45;;;;;;;27.00;11.45;;;;;;;7.07;100.00;101483.44;5133451;28;20052;-44
2022/09/25 04:03:14;;;;;;;23.58;10.80;;;;;;;6.92;100.00;101480.94;5133458;28;20027;-47
2022/09/25 04:05:42;;;;;;;23.95;11.55;;;;;;;6.94;100.00;101481.00;5133167;28;20023;-46
2022/09/25 04:08:07;;;;;;;23.80;11.48;;;;;;;6.87;100.00;101483.22;5133932;28;20031;-44
2022/09/25 04:10:37;;;;;;;20.85;11.52;;;;;;;6.92;100.00;101486.94;5132912;28;20023;-45
2022/09/25 04:13:03;;;;;;;21.77;11.93;;;;;;;6.93;100.00;101477.53;5133758;28;20046;-49
2022/09/25 04:15:29;;;;;;;22.85;12.48;;;;;;;6.86;100.00;101480.59;5133351;28;20382;-48
2022/09/25 04:17:54;;;;;;;21.17;12.00;;;;;;;6.88;100.00;101476.41;5133166;28;20319;-48
2022/09/25 04:20:20;;;;;;;26.98;12.20;;;;;;;6.81;100.00;101480.31;5133782;28;20027;-44
2022/09/25 04:22:45;;;;;;;28.42;13.80;;;;;;;6.90;100.00;101472.25;5132953;28;20072;-49
2022/09/25 04:25:11;;;;;;;26.23;14.57;;;;;;;6.90;100.00;101468.00;5133293;28;20047;-45
2022/09/25 04:27:36;;;;;;;22.70;13.20;;;;;;;6.85;100.00;101466.00;5133413;28;20104;-45
2022/09/25 04:30:06;;;;;;;27.05;13.75;;;;;;;6.80;100.00;101477.69;5133290;28;20435;-44
2022/09/25 04:35:15;;;;;;;23.33;12.35;;;;;;;6.70;100.00;101481.41;5133902;28;20042;-44
2022/09/25 04:37:40;;;;;;;28.92;15.32;;;;;;;6.85;100.00;101482.25;5132810;28;20386;-44
2022/09/25 04:40:06;;;;;;;24.65;15.40;;;;;;;6.80;100.00;101478.56;5133249;28;20153;-43
2022/09/25 04:42:32;;;;;;;27.10;15.18;;;;;;;6.83;100.00;101477.84;5133002;28;20080;-46
2022/09/25 04:44:57;;;;;;;30.63;15.45;;;;;;;6.87;100.00;101469.53;5133091;28;20100;-45
2022/09/25 04:47:26;;;;;;;24.98;14.15;;;;;;;6.72;100.00;101474.69;5133376;28;20026;-45
2022/09/25 04:49:51;;;;;;;25.77;12.95;;;;;;;6.62;100.00;101469.84;5133193;28;20015;-44
2022/09/25 04:52:19;;;;;;;18.77;11.48;;;;;;;6.52;100.00;101474.47;5132819;28;20486;-46
2022/09/25 04:54:45;;;;;;;27.67;12.85;;;;;;;6.58;100.00;101467.13;5132727;28;20031;-44
2022/09/25 04:57:19;;;;;;;23.95;11.90;;;;;;;6.57;100.00;101469.59;5133500;28;20027;-45
2022/09/25 04:59:44;;;;;;;17.25;11.45;;;;;;;6.43;100.00;101474.84;5132445;28;20031;-47
2022/09/25 05:02:13;;;;;;;19.17;11.80;;;;;;;6.44;100.00;101473.13;5133450;28;20101;-45
2022/09/25 05:04:38;;;;;;;17.63;11.65;;;;;;;6.38;100.00;101472.81;5132420;28;20034;-45
2022/09/25 05:07:04;;;;;;;25.13;14.52;;;;;;;6.50;100.00;101468.38;5133011;28;20023;-47
2022/09/25 05:09:30;;;;;;;25.50;14.48;;;;;;;6.52;100.00;101464.22;5133115;27;20100;-44
2022/09/25 05:11:56;;;;;;;21.85;14.73;;;;;;;6.53;100.00;101462.53;5135294;27;20031;-46
2022/09/25 05:14:22;;;;;;;33.88;16.67;;;;;;;6.52;100.00;101461.66;5136494;27;20114;-44
2022/09/25 05:16:47;;;;;;;32.78;18.52;;;;;;;6.70;100.00;101456.69;5136546;27;20027;-45
2022/09/25 05:19:13;;;;;;;31.35;16.85;;;;;;;6.63;100.00;101459.69;5136251;27;20019;-44
2022/09/25 05:21:39;;;;;;;28.42;15.57;;;;;;;6.61;100.00;101455.28;5136164;27;20023;-44
2022/09/25 05:24:07;;;;;;;24.52;15.05;;;;;;;6.52;100.00;101461.66;5136464;27;20488;-46
2022/09/25 05:26:33;;;;;;;26.67;14.02;;;;;;;6.46;100.00;101456.19;5135598;27;20466;-47
2022/09/25 05:28:59;;;;;;;20.73;13.02;;;;;;;6.38;100.00;101463.44;5136637;27;20029;-46
2022/09/25 05:31:24;;;;;;;18.70;11.50;;;;;;;6.22;100.00;101459.16;5136545;27;20449;-45
2022/09/25 05:33:50;;;;;;;20.50;11.80;;;;;;;6.22;100.00;101461.72;5135739;27;20024;-44
2022/09/25 05:36:17;;;;;;;29.42;15.23;;;;;;;6.27;100.00;101461.94;5136089;27;20478;-48
2022/09/25 05:38:43;;;;;;;26.33;15.38;;;;;;;6.29;100.00;101456.91;5136035;27;20412;-46
2022/09/25 05:41:09;;;;;;;28.85;17.13;;;;;;;6.34;100.00;101455.50;5135712;27;20043;-45
2022/09/25 05:43:42;;;;;;;21.05;12.68;;;;;;;6.24;100.00;101451.53;5136008;27;20057;-47
2022/09/25 05:46:08;;;;;;;20.67;13.13;;;;;;;6.26;100.00;101461.09;5136354;27;20106;-47
2022/09/25 05:48:33;;;;;;;21.95;14.20;;;;;;;6.26;100.00;101463.63;5135537;27;20062;-44
2022/09/25 05:50:59;;;;;;;16.27;11.48;;;;;;;6.24;100.00;101465.22;5135796;27;20055;-44
2022/09/25 05:53:25;;;;;;;17.77;11.93;;;;;;;6.19;100.00;101465.75;5136269;27;20091;-48
2022/09/25 05:56:04;;;;;;;21.83;13.45;;;;;;;6.23;100.00;101473.69;5135200;27;20102;-47
2022/09/25 05:58:35;;;;;;;30.40;16.42;;;;;;;6.34;100.00;101470.84;5135859;27;20374;-45
2022/09/25 06:01:02;;;;;;;22.17;14.25;;;;;;;6.34;100.00;101470.84;5135409;27;20019;-48
2022/09/25 06:03:28;;;;;;;22.80;14.40;;;;;;;6.34;100.00;101466.63;5135577;27;20102;-44
2022/09/25 06:05:57;;;;;;;37.20;18.17;;;;;;;6.43;100.00;101471.41;5135759;27;20156;-46
2022/09/25 06:08:23;;;;;;;35.20;20.92;;;;;;;6.54;100.00;101475.41;5135152;27;20023;-47
2022/09/25 06:10:53;;;;;;;46.38;24.27;;;;;;;6.64;100.00;101473.41;5135310;27;20019;-46
2022/09/25 06:13:18;;;;;;;45.63;25.02;;;;;;;6.72;100.00;101477.25;5135645;27;20399;-45
2022/09/25 06:15:44;;;;;;;38.80;22.85;;;;;;;6.73;100.00;101472.22;5134858;27;20485;-45
2022/09/25 06:18:09;;;;;;;43.08;24.17;;;;;;;6.87;100.00;101466.97;5135310;27;20030;-46
2022/09/25 06:20:35;;;;;;;45.25;23.65;;;;;;;6.94;100.00;101475.88;5135531;27;20539;-49
2022/09/25 06:23:00;;;;;;;44.42;25.05;;;;;;;6.99;100.00;101477.00;5134708;27;20034;-46
2022/09/25 06:25:29;;;;;;;42.38;24.75;;;;;;;7.07;100.00;101479.16;5135261;27;20070;-48
2022/09/25 06:27:56;;;;;;;42.92;23.05;;;;;;;7.14;100.00;101479.50;5135042;27;20026;-46
2022/09/25 06:30:26;;;;;;;47.13;25.33;;;;;;;7.16;100.00;101478.78;5134752;27;20023;-48
2022/09/25 06:32:57;;;;;;;39.85;22.15;;;;;;;7.22;100.00;101483.38;5134685;27;20106;-45
2022/09/25 06:35:22;;;;;;;39.25;22.92;;;;;;;7.33;100.00;101481.38;5135247;27;20033;-48
2022/09/25 06:37:47;;;;;;;37.75;23.45;;;;;;;7.36;100.00;101481.53;5134532;27;20027;-46
2022/09/25 06:40:13;;;;;;;41.10;22.90;;;;;;;7.41;100.00;101480.09;5134803;27;20015;-48
2022/09/25 06:42:38;;;;;;;39.40;22.48;;;;;;;7.44;100.00;101481.94;5134922;27;20474;-48
2022/09/25 06:45:04;;;;;;;40.83;23.42;;;;;;;7.52;100.00;101478.97;5134160;27;20027;-47
2022/09/25 06:47:29;;;;;;;38.47;23.35;;;;;;;7.60;100.00;101475.94;5135172;27;20024;-48
2022/09/25 06:49:54;;;;;;;38.15;23.23;;;;;;;7.67;100.00;101476.31;5134822;27;20027;-47
2022/09/25 06:52:19;;;;;;;43.10;23.83;;;;;;;7.74;100.00;101474.94;5134201;27;20015;-49
2022/09/25 06:54:45;;;;;;;42.28;23.30;;;;;;;7.83;100.00;101485.69;5134657;27;20050;-47
2022/09/25 06:57:11;;;;;;;40.85;23.17;;;;;;;7.89;100.00;101491.13;5134147;27;20103;-48
2022/09/25 06:59:36;;;;;;;41.35;23.80;;;;;;;8.00;100.00;101488.22;5134219;27;20097;-47
2022/09/25 07:03:43;;;;;;;40.53;22.92;;;;;;;8.03;100.00;101491.84;5134677;27;20035;-45
2022/09/25 07:04:50;;;;;;;33.17;21.63;;;;;;;8.18;100.00;101493.41;5133771;27;20042;-46
2022/09/25 07:07:19;;;;;;;39.58;22.55;;;;;;;8.28;100.00;101489.63;5134431;27;20027;-44
2022/09/25 07:09:47;;;;;;;38.70;21.90;;;;;;;8.38;100.00;101486.69;5134273;27;20023;-42
2022/09/25 07:12:13;;;;;;;39.58;22.02;;;;;;;8.47;100.00;101486.25;5133953;27;20160;-45
2022/09/25 07:14:40;;;;;;;33.80;20.67;;;;;;;8.55;100.00;101485.84;5134129;27;20023;-44
2022/09/25 07:17:06;;;;;;;36.05;21.08;;;;;;;8.69;100.00;101495.91;5134583;27;20075;-46
2022/09/25 07:19:31;;;;;;;34.38;20.50;;;;;;;8.78;100.00;101495.44;5133628;27;20023;-42
2022/09/25 07:21:56;;;;;;;33.25;20.08;;;;;;;8.90;100.00;101493.47;5134027;27;20022;-44
2022/09/25 07:24:22;;;;;;;31.45;18.15;;;;;;;8.99;100.00;101493.03;5134270;27;20035;-44
2022/09/25 07:26:47;;;;;;;24.02;15.55;;;;;;;9.11;100.00;101491.00;5133352;27;20030;-42
2022/09/25 07:29:12;;;;;;;25.45;15.85;;;;;;;9.22;100.00;101494.06;5134160;27;20470;-45
2022/09/25 07:31:38;;;;;;;21.15;15.00;;;;;;;9.36;100.00;101494.66;5134136;27;20052;-46
2022/09/25 07:34:07;;;;;;;21.30;13.75;;;;;;;9.43;100.00;101499.28;5132652;27;20019;-46
2022/09/25 07:36:34;;;;;;;22.25;13.18;;;;;;;9.58;100.00;101501.69;5133850;27;20476;-45
2022/09/25 07:39:00;;;;;;;17.50;11.13;;;;;;;9.69;100.00;101499.56;5134105;27;20035;-45
2022/09/25 07:41:25;;;;;;;21.67;11.20;;;;;;;9.78;100.00;101499.97;5133020;27;20080;-43
2022/09/25 07:43:56;;;;;;;17.70;10.45;;;;;;;9.94;100.00;101498.03;5133743;27;20065;-46
2022/09/25 07:46:21;;;;;;;16.15;9.82;;;;;;;10.04;100.00;101495.03;5133379;27;20038;-46
2022/09/25 07:48:50;;;;;;;14.25;8.48;;;;;;;10.14;100.00;101494.63;5133675;27;20019;-47
2022/09/25 07:51:16;;;;;;;14.32;8.55;;;;;;;10.27;100.00;101492.56;5133909;27;20031;-44
2022/09/25 07:53:42;;;;;;;11.75;7.47;;;;;;;10.35;100.00;101486.00;5133028;27;20035;-47
2022/09/25 07:56:10;;;;;;;13.88;7.53;;;;;;;10.46;100.00;101492.53;5133570;28;20027;-45
2022/09/25 07:58:36;;;;;;;13.48;7.28;;;;;;;10.54;100.00;101491.13;5133833;28;20023;-43
2022/09/25 08:01:04;;;;;;;11.57;8.18;;;;;;;10.68;100.00;101503.69;5133200;28;20108;-46
2022/09/25 08:03:29;;;;;;;15.88;7.88;;;;;;;10.82;100.00;101496.47;5133670;28;20355;-45
2022/09/25 08:06:00;;;;;;;17.33;7.38;;;;;;;10.93;100.00;101495.19;5133444;28;20478;-46
2022/09/25 08:08:26;;;;;;;12.48;7.05;;;;;;;11.06;100.00;101491.41;5133097;28;20015;-44
2022/09/25 08:10:53;;;;;;;16.27;6.93;;;;;;;11.13;100.00;101493.41;5133436;28;20081;-44
2022/09/25 08:13:20;;;;;;;14.32;7.20;;;;;;;11.20;100.00;101489.34;5133903;28;20110;-46
2022/09/25 08:15:45;;;;;;;13.65;6.75;;;;;;;11.25;100.00;101495.56;5133058;28;20034;-46
2022/09/25 08:18:10;;;;;;;13.45;6.85;;;;;;;11.33;100.00;101490.69;5133388;28;20012;-46
2022/09/25 08:20:38;;;;;;;12.80;6.20;;;;;;;11.46;100.00;101487.72;5133355;28;20035;-48
2022/09/25 08:23:04;;;;;;;16.73;5.53;;;;;;;11.54;100.00;101487.97;5132936;28;20466;-46
2022/09/25 08:25:30;;;;;;;11.95;4.47;;;;;;;11.59;100.00;101488.16;5133373;28;20026;-44
2022/09/25 08:27:55;;;;;;;19.38;5.50;;;;;;;11.66;100.00;101482.41;5133437;28;20045;-45
2022/09/25 08:30:20;;;;;;;11.60;5.03;;;;;;;11.75;100.00;101487.88;5132689;28;20023;-47
2022/09/25 08:32:45;;;;;;;9.85;4.80;;;;;;;11.81;100.00;101490.69;5133297;28;20484;-47
2022/09/25 08:35:11;;;;;;;12.57;4.60;;;;;;;11.91;100.00;101491.00;5133534;28;20065;-43
2022/09/25 08:37:40;;;;;;;14.55;4.95;;;;;;;11.98;100.00;101485.22;5132398;28;20038;-45
2022/09/25 08:40:11;;;;;;;18.00;4.68;;;;;;;12.08;100.00;101492.47;5133614;28;20034;-46
2022/09/25 08:42:37;;;;;;;10.80;4.25;;;;;;;12.21;100.00;101491.16;5132516;28;20051;-43
2022/09/25 08:50:39;;;;;;;10.45;3.70;;;;;;;12.48;100.00;101496.38;5136623;27;20092;-46
2022/09/25 08:53:10;;;;;;;8.88;3.53;;;;;;;12.47;100.00;101494.63;5136964;27;20031;-45
2022/09/25 08:58:28;;;;;;;7.70;2.83;;;;;;;12.66;100.00;101500.38;5136577;27;20089;-44
2022/09/25 09:00:58;;;;;;;15.80;3.40;;;;;;;12.73;100.00;101497.16;5137008;27;20035;-45
2022/09/25 09:03:29;;;;;;;12.93;3.33;;;;;;;12.86;100.00;101493.25;5137301;27;20110;-44
2022/09/25 09:06:15;;;;;;;10.55;3.20;;;;;;;13.03;100.00;101488.56;5135974;27;20025;-46
2022/09/25 09:08:46;;;;;;;8.77;2.00;;;;;;;13.07;98.21;101487.81;5136697;27;20466;-42
2022/09/25 09:11:20;;;;;;;10.98;2.40;;;;;;;13.35;98.35;101493.81;5136232;27;20385;-45
2022/09/25 09:13:56;;;;;;;10.57;2.30;;;;;;;13.48;97.41;101485.59;5136545;27;20027;-46
2022/09/25 09:16:21;;;;;;;11.15;2.88;;;;;;;13.73;97.00;101481.06;5137020;27;20027;-46
2022/09/25 09:18:47;;;;;;;12.85;2.40;;;;;;;13.81;91.26;101482.16;5136000;27;20046;-47
2022/09/25 09:21:15;;;;;;;8.75;2.13;;;;;;;14.41;88.23;101477.59;5136550;27;20027;-46
2022/09/25 09:24:10;;;;;;;9.68;2.33;;;;;;;14.92;89.64;101480.50;5136288;27;20174;-44
2022/09/25 09:27:03;;;;;;;10.73;2.13;;;;;;;15.36;86.55;101477.94;5135582;27;20035;-46
2022/09/25 09:29:55;;;;;;;10.32;1.77;;;;;;;15.46;82.66;101474.69;5136676;27;20059;-45
2022/09/25 09:32:29;;;;;;;7.97;1.60;;;;;;;16.12;76.35;101476.78;5136172;27;20086;-42
2022/09/25 09:35:56;;;;;;;6.85;1.58;;;;;;;16.42;78.66;101475.50;5136340;27;20046;-44
2022/09/25 09:38:41;;;;;;;8.15;1.88;;;;;;;16.94;74.81;101475.44;5073192;28;20024;-45
2022/09/25 09:41:27;;;;;;;7.20;1.80;;;;;;;17.53;73.12;101478.75;5130504;27;20110;-44
2022/09/25 09:43:55;;;;;;;10.50;1.87;;;;;;;17.49;65.57;101476.97;5125324;27;20035;-45
2022/09/25 09:46:33;;;;;;;10.13;1.92;;;;;;;17.54;65.90;101473.53;5135528;27;20031;-47
2022/09/25 09:49:09;;;;;;;9.05;1.80;;;;;;;17.86;65.84;101473.00;5136205;27;20083;-45
2022/09/25 09:51:38;;;;;;;9.68;1.80;;;;;;;17.86;63.10;101479.97;5135891;27;20495;-45
2022/09/25 09:54:23;;;;;;;11.27;1.60;;;;;;;18.20;63.41;101470.69;5135586;27;20074;-46
2022/09/25 09:56:51;;;;;;;5.57;1.25;;;;;;;18.62;58.68;101473.63;5135195;27;20023;-43
2022/09/25 09:59:22;;;;;;;9.10;1.40;;;;;;;18.72;56.96;101464.97;5136227;27;20031;-44
2022/09/25 10:02:03;;;;;;;5.13;1.33;;;;;;;18.17;61.54;101465.47;5135059;27;20027;-43
2022/09/25 10:04:34;;;;;;;6.55;1.60;;;;;;;17.56;59.37;101466.63;5136017;27;20059;-46
2022/09/25 10:07:08;;;;;;;10.80;1.35;;;;;;;18.38;59.65;101463.88;5135176;27;20410;-47
2022/09/25 10:09:35;;;;;;;8.55;1.67;;;;;;;18.10;59.51;101459.34;5135281;27;20466;-45
2022/09/25 10:12:21;;;;;;;6.20;1.30;;;;;;;18.23;62.36;101469.84;5135698;27;20031;-43
2022/09/25 10:14:47;;;;;;;8.68;1.20;;;;;;;17.36;59.37;101455.97;5134077;27;20027;-45
2022/09/25 10:17:14;;;;;;;7.70;1.40;;;;;;;17.58;62.31;101459.72;5135396;27;20067;-46
2022/09/25 10:19:54;;;;;;;10.50;1.30;;;;;;;18.19;61.10;101457.66;5135409;27;20034;-47
2022/09/25 10:22:24;;;;;;;6.85;1.17;;;;;;;18.76;57.45;101455.44;5134970;27;20351;-47
2022/09/25 10:25:01;;;;;;;5.82;1.20;;;;;;;18.75;55.54;101459.78;5135027;27;20474;-44
2022/09/25 10:27:34;;;;;;;7.53;1.45;;;;;;;17.78;56.81;101462.50;5135593;27;20019;-45
2022/09/25 10:30:12;;;;;;;6.07;1.42;;;;;;;17.70;57.61;101463.28;5134608;27;20031;-47
2022/09/25 10:32:55;;;;;;;8.63;1.73;;;;;;;18.41;57.70;101459.56;5135324;27;20034;-47
2022/09/25 10:35:44;;;;;;;8.20;1.50;;;;;;;19.59;54.82;101449.66;5134819;27;20113;-46
2022/09/25 10:38:43;;;;;;;7.43;1.20;;;;;;;20.21;51.26;101454.97;5134834;27;20394;-45
2022/09/25 10:41:19;;;;;;;8.00;1.55;;;;;;;19.71;53.42;101460.13;5115845;27;20043;-45
2022/09/25 10:43:55;;;;;;;5.13;1.50;;;;;;;18.53;54.30;101453.56;5134223;27;20019;-45
2022/09/25 10:52:13;;;;;;;5.88;1.23;;;;;;;18.21;55.38;101455.94;5135146;27;20046;-48
2022/09/25 10:54:39;;;;;;;6.25;1.30;;;;;;;19.30;51.55;101453.09;5134774;27;20038;-46
2022/09/25 10:57:32;;;;;;;7.35;1.65;;;;;;;20.20;53.44;101447.97;5134318;27;20023;-47
2022/09/25 10:59:59;;;;;;;7.78;1.20;;;;;;;19.93;49.50;101447.09;5134975;27;20023;-46
2022/09/25 11:02:39;;;;;;;6.63;1.23;;;;;;;19.17;52.47;101446.94;5134613;27;20374;-43
2022/09/25 11:05:13;;;;;;;6.18;1.10;;;;;;;20.00;51.00;101441.00;5133856;27;20111;-47
2022/09/25 11:07:38;;;;;;;6.75;1.27;;;;;;;20.86;47.77;101441.75;5134182;27;20137;-43
2022/09/25 11:10:03;;;;;;;5.82;1.35;;;;;;;20.87;46.01;101444.34;5133809;27;20122;-44
2022/09/25 11:12:31;;;;;;;5.05;1.30;;;;;;;20.37;45.33;101441.00;5133965;27;20023;-48
2022/09/25 11:15:01;;;;;;;5.68;0.98;;;;;;;20.71;44.74;101446.16;5134495;27;20459;-48
2022/09/25 11:17:53;;;;;;;5.45;1.33;;;;;;;21.15;48.12;101445.97;5133979;27;20382;-49
2022/09/25 11:20:28;;;;;;;6.78;1.65;;;;;;;21.22;45.28;101443.31;5130077;27;20039;-43
2022/09/25 11:23:28;;;;;;;5.60;1.10;;;;;;;21.92;44.82;101444.66;5134244;27;20034;-44
2022/09/25 11:26:04;;;;;;;6.25;1.15;;;;;;;22.45;42.97;101440.72;5118661;27;20435;-48
2022/09/25 11:28:36;;;;;;;5.75;1.08;;;;;;;23.75;42.01;101448.69;5134198;27;20022;-45
2022/09/25 11:31:34;;;;;;;5.63;1.25;;;;;;;23.69;45.10;101439.13;5134097;27;20375;-48
2022/09/25 11:34:23;;;;;;;8.13;1.30;;;;;;;23.85;43.94;101439.75;5134053;27;20023;-47
2022/09/25 11:36:55;;;;;;;6.35;0.90;;;;;;;24.18;39.06;101434.81;5133909;27;20034;-47
2022/09/25 11:42:59;;;;;;;4.28;0.80;;;;;;;24.71;41.67;101425.97;5134058;27;20103;-48
2022/09/25 11:45:35;;;;;;;6.20;1.10;;;;;;;23.48;35.88;101425.41;5134407;27;20114;-45
2022/09/25 11:48:11;;;;;;;5.43;0.80;;;;;;;24.27;36.73;101421.50;5134000;27;20024;-48
2022/09/25 11:51:06;;;;;;;9.02;0.90;;;;;;;24.76;41.07;101424.09;5133835;27;20022;-48
2022/09/25 11:53:39;;;;;;;6.25;1.15;;;;;;;25.20;37.29;101422.28;5132987;27;20474;-45
2022/09/25 11:56:14;;;;;;;7.75;1.33;;;;;;;25.22;34.53;101417.84;5133855;27;20477;-47